createdAt,value
2023-04-06T00:01:03.009Z,98006.75
2023-04-06T00:03:48.763Z,98069.13
2023-04-06T00:06:34.935Z,98118.34
2023-04-06T00:09:20.805Z,98052.53
2023-04-06T00:12:06.641Z,97999.75
2023-04-06T00:14:55.396Z,97992.84
2023-04-06T00:17:41.546Z,98053.13
2023-04-06T00:20:27.028Z,97918.69
2023-04-06T00:23:12.518Z,98026.34
2023-04-06T00:25:58.287Z,98011.00
2023-04-06T00:28:43.635Z,97814.72
2023-04-06T00:31:29.285Z,97796.97
2023-04-06T00:34:16.945Z,97983.19
2023-04-06T00:37:02.802Z,97807.78
2023-04-06T00:39:49.493Z,97786.09
2023-04-06T00:42:34.936Z,97990.69
2023-04-06T00:45:20.588Z,97986.16
2023-04-06T00:48:08.312Z,97961.91
2023-04-06T00:50:56.018Z,97973.97
2023-04-06T00:53:41.539Z,97808.47
2023-04-06T00:56:29.196Z,97798.63
2023-04-06T00:59:14.567Z,97765.91
2023-04-06T01:02:01.047Z,97969.78
2023-04-06T01:04:58.713Z,97887.25
2023-04-06T01:07:55.420Z,97746.94
2023-04-06T01:10:44.452Z,97758.53
2023-04-06T01:13:40.492Z,97940.59
2023-04-06T01:16:34.038Z,97718.31
2023-04-06T01:19:29.192Z,97921.09
2023-04-06T01:22:17.865Z,97882.22
2023-04-06T01:25:12.028Z,97922.34
2023-04-06T01:28:20.391Z,97897.00
2023-04-06T01:31:23.885Z,97854.88
2023-04-06T01:34:11.959Z,97916.19
2023-04-06T01:36:57.672Z,97862.97
2023-04-06T01:39:49.299Z,97912.69
2023-04-06T01:42:44.921Z,97941.91
2023-04-06T01:45:36.643Z,97887.41
2023-04-06T01:48:33.959Z,97873.28
2023-04-06T01:51:26.912Z,97899.41
2023-04-06T01:54:17.584Z,97878.66
2023-04-06T01:57:16.021Z,97819.50
2023-04-06T02:00:15.610Z,97826.16
2023-04-06T02:03:06.274Z,97879.91
2023-04-06T02:05:52.319Z,97884.16
2023-04-06T02:08:52.484Z,97857.03
2023-04-06T02:11:38.440Z,97836.22
2023-04-06T02:14:26.948Z,97737.97
2023-04-06T02:17:16.596Z,97859.59
2023-04-06T02:20:03.296Z,97738.03
2023-04-06T02:22:48.613Z,97815.22
2023-04-06T02:25:34.486Z,97840.00
2023-04-06T02:28:20.000Z,97835.03
2023-04-06T02:31:06.055Z,97657.75
2023-04-06T02:33:51.485Z,97678.72
2023-04-06T02:36:37.958Z,97822.50
2023-04-06T02:39:23.782Z,97817.78
2023-04-06T02:42:09.977Z,97810.41
2023-04-06T02:44:55.613Z,97767.56
2023-04-06T02:47:45.042Z,97829.22
2023-04-06T02:50:34.417Z,97819.16
2023-04-06T02:53:23.901Z,97820.66
2023-04-06T02:56:09.966Z,97830.06
2023-04-06T02:59:03.936Z,97863.66
2023-04-06T03:01:51.827Z,97819.88
2023-04-06T03:04:37.903Z,97652.19
2023-04-06T03:07:27.528Z,97825.75
2023-04-06T03:10:14.014Z,97611.13
2023-04-06T03:13:00.378Z,97722.19
2023-04-06T03:16:07.692Z,97810.66
2023-04-06T03:18:54.373Z,97793.34
2023-04-06T03:21:40.788Z,97581.59
2023-04-06T03:24:27.262Z,97787.63
2023-04-06T03:27:12.877Z,97612.53
2023-04-06T03:29:59.799Z,97773.31
2023-04-06T03:32:51.424Z,97773.22
2023-04-06T03:35:39.149Z,97795.22
2023-04-06T03:38:25.970Z,97755.84
2023-04-06T03:41:12.036Z,97707.22
2023-04-06T03:44:00.142Z,97744.09
2023-04-06T03:46:45.716Z,97757.81
2023-04-06T03:49:31.633Z,97536.44
2023-04-06T03:52:18.175Z,97636.41
2023-04-06T03:55:03.999Z,97782.06
2023-04-06T03:57:49.703Z,97549.47
2023-04-06T04:00:35.470Z,97550.16
2023-04-06T04:03:22.661Z,97563.66
2023-04-06T04:06:08.468Z,97776.25
2023-04-06T04:08:54.110Z,97781.72
2023-04-06T04:11:39.821Z,97779.38
2023-04-06T04:14:26.478Z,97560.69
2023-04-06T04:17:12.122Z,97563.09
2023-04-06T04:19:57.835Z,97541.00
2023-04-06T04:22:45.888Z,97767.66
2023-04-06T04:25:31.871Z,97771.13
2023-04-06T04:28:17.360Z,97583.81
2023-04-06T04:31:05.460Z,97785.22
2023-04-06T04:33:53.511Z,97733.78
2023-04-06T04:36:45.699Z,97763.84
2023-04-06T04:39:39.456Z,97576.16
2023-04-06T04:42:26.465Z,97549.88
2023-04-06T04:45:15.495Z,97534.34
2023-04-06T04:48:02.088Z,97713.56
2023-04-06T04:50:56.570Z,97487.31
2023-04-06T04:53:46.452Z,97630.75
2023-04-06T04:56:43.980Z,97669.63
2023-04-06T04:59:44.060Z,97676.69
2023-04-06T05:02:45.451Z,97673.31
2023-04-06T05:05:39.214Z,97574.09
2023-04-06T05:08:25.629Z,97663.66
2023-04-06T05:11:14.409Z,97566.28
2023-04-06T05:14:28.183Z,97677.13
2023-04-06T05:17:21.402Z,97538.31
2023-04-06T05:20:10.873Z,97696.88
2023-04-06T05:23:47.304Z,97690.41
2023-04-06T05:26:32.763Z,97454.03
2023-04-06T05:29:42.985Z,97696.28
2023-04-06T05:32:29.189Z,97717.06
2023-04-06T05:35:15.914Z,97714.53
2023-04-06T05:38:09.310Z,97701.00
2023-04-06T05:44:32.018Z,97693.56
2023-04-06T05:47:59.916Z,97692.41
2023-04-06T05:51:10.218Z,97686.59
2023-04-06T05:54:15.058Z,97525.56
2023-04-06T05:57:19.492Z,97688.19
2023-04-06T06:00:16.299Z,97696.00
2023-04-06T06:03:16.356Z,97329.94
2023-04-06T06:06:16.736Z,97673.47
2023-04-06T06:09:23.618Z,97685.53
2023-04-06T06:12:42.118Z,97688.28
2023-04-06T06:15:38.814Z,97674.66
2023-04-06T06:18:30.696Z,97659.03
2023-04-06T06:21:22.015Z,97505.97
2023-04-06T06:24:22.756Z,97677.59
2023-04-06T06:27:43.797Z,97687.97
2023-04-06T06:31:03.743Z,97682.22
2023-04-06T06:34:24.528Z,97694.00
2023-04-06T06:40:41.679Z,97589.06
2023-04-06T06:43:39.087Z,97690.53
2023-04-06T06:46:33.806Z,97687.28
2023-04-06T06:49:20.775Z,97521.47
2023-04-06T06:52:06.287Z,97479.72
2023-04-06T06:54:51.803Z,97461.47
2023-04-06T06:57:39.560Z,97622.97
2023-04-06T07:00:27.070Z,97516.84
2023-04-06T07:03:13.124Z,97674.03
2023-04-06T07:05:58.660Z,97643.84
2023-04-06T07:08:45.593Z,97660.91
2023-04-06T07:11:31.527Z,97682.25
2023-04-06T07:14:18.094Z,97668.91
2023-04-06T07:17:04.465Z,97419.59
2023-04-06T07:19:50.669Z,97486.38
2023-04-06T07:22:36.514Z,97450.91
2023-04-06T07:25:25.169Z,97598.63
2023-04-06T07:28:11.292Z,97616.50
2023-04-06T07:30:57.645Z,97479.13
2023-04-06T07:33:44.148Z,97670.59
2023-04-06T07:36:30.142Z,97657.50
2023-04-06T07:39:25.491Z,97669.25
2023-04-06T07:42:18.152Z,97670.34
2023-04-06T07:45:05.357Z,97686.69
2023-04-06T07:47:51.885Z,97544.09
2023-04-06T07:50:37.651Z,97654.63
2023-04-06T07:53:25.120Z,97665.13
2023-04-06T07:56:10.901Z,97668.97
2023-04-06T07:58:58.303Z,97679.88
2023-04-06T08:01:44.307Z,97511.84
2023-04-06T08:04:29.783Z,97668.72
2023-04-06T08:07:15.436Z,97500.66
2023-04-06T08:10:36.103Z,97638.38
2023-04-06T08:13:22.056Z,97697.69
2023-04-06T08:16:08.921Z,97594.81
2023-04-06T08:18:54.164Z,97600.59
2023-04-06T08:21:43.574Z,97448.88
2023-04-06T08:24:29.616Z,97650.94
2023-04-06T08:27:15.867Z,97673.16
2023-04-06T08:30:02.607Z,97684.53
2023-04-06T08:32:48.539Z,97672.16
2023-04-06T08:35:39.980Z,97650.09
2023-04-06T08:38:58.668Z,97649.47
2023-04-06T08:42:08.623Z,97633.97
2023-04-06T08:45:16.097Z,97629.44
2023-04-06T08:48:09.466Z,97434.41
2023-04-06T08:50:56.248Z,97641.28
2023-04-06T08:53:42.187Z,97671.50
2023-04-06T08:56:29.515Z,97647.78
2023-04-06T08:59:16.105Z,97654.72
2023-04-06T09:02:06.473Z,97657.16
2023-04-06T09:04:54.730Z,97667.28
2023-04-06T09:07:40.596Z,97648.97
2023-04-06T09:10:26.887Z,97617.25
2023-04-06T09:13:12.555Z,97477.13
2023-04-06T09:16:06.178Z,97447.44
2023-04-06T09:18:51.697Z,97622.53
2023-04-06T09:21:38.043Z,97651.59
2023-04-06T09:24:27.223Z,97614.84
2023-04-06T09:27:13.629Z,97651.16
2023-04-06T09:30:06.318Z,97653.06
2023-04-06T09:32:53.806Z,97463.34
2023-04-06T09:35:40.077Z,97651.59
2023-04-06T09:38:26.117Z,97507.13
2023-04-06T09:41:11.874Z,97661.25
2023-04-06T09:44:07.991Z,97650.75
2023-04-06T09:46:59.598Z,97608.78
2023-04-06T09:49:51.103Z,97627.03
2023-04-06T09:52:52.345Z,97650.53
2023-04-06T09:55:44.266Z,97653.81
2023-04-06T09:58:35.050Z,97652.25
2023-04-06T10:01:21.827Z,97633.34
2023-04-06T10:04:19.634Z,97676.34
2023-04-06T10:07:07.801Z,97628.31
2023-04-06T10:09:56.375Z,97633.13
2023-04-06T10:12:43.551Z,97644.25
2023-04-06T10:15:32.465Z,97515.56
2023-04-06T10:18:18.743Z,97627.69
2023-04-06T10:21:12.848Z,97627.88
2023-04-06T10:24:03.483Z,97681.41
2023-04-06T10:27:28.024Z,97632.53
2023-04-06T10:30:17.064Z,97644.78
2023-04-06T10:33:17.374Z,97640.28
2023-04-06T10:36:23.428Z,97580.88
2023-04-06T10:39:09.227Z,97540.78
2023-04-06T10:41:54.984Z,97645.72
2023-04-06T10:44:45.817Z,97632.53
2023-04-06T10:47:41.047Z,97648.88
2023-04-06T10:50:27.216Z,97648.88
2023-04-06T10:53:12.609Z,97622.84
2023-04-06T10:55:59.002Z,97532.59
2023-04-06T10:58:53.917Z,97444.34
2023-04-06T11:01:46.715Z,97640.06
2023-04-06T11:04:32.655Z,97495.69
2023-04-06T11:07:24.688Z,97604.72
2023-04-06T11:10:16.584Z,97632.72
2023-04-06T11:13:03.599Z,97639.03
2023-04-06T11:15:50.202Z,97570.72
2023-04-06T11:18:36.267Z,97508.28
2023-04-06T11:21:41.215Z,97613.31
2023-04-06T11:24:30.663Z,97636.28
2023-04-06T11:27:19.412Z,97641.75
2023-04-06T11:30:06.479Z,97458.63
2023-04-06T11:32:52.863Z,97645.31
2023-04-06T11:35:38.471Z,97440.00
2023-04-06T11:38:24.046Z,97633.25
2023-04-06T11:41:09.924Z,97641.94
2023-04-06T11:43:57.020Z,97468.22
2023-04-06T11:46:52.182Z,97654.66
2023-04-06T11:49:39.958Z,97623.06
2023-04-06T11:52:28.542Z,97434.44
2023-04-06T11:55:17.002Z,97628.50
2023-04-06T11:58:02.709Z,97635.22
2023-04-06T12:00:48.342Z,97618.44
2023-04-06T12:03:33.889Z,97630.22
2023-04-06T12:06:19.811Z,97633.78
2023-04-06T12:09:05.656Z,97473.75
2023-04-06T12:11:51.281Z,97443.97
2023-04-06T12:14:36.942Z,97626.09
2023-04-06T12:17:22.615Z,97453.06
2023-04-06T12:20:22.111Z,97617.59
2023-04-06T12:23:11.377Z,97614.44
2023-04-06T12:25:57.373Z,97648.97
2023-04-06T12:28:42.884Z,97634.41
2023-04-06T12:31:29.549Z,97630.84
2023-04-06T12:34:15.129Z,97558.41
2023-04-06T12:37:00.708Z,97462.31
2023-04-06T12:39:47.268Z,97413.84
2023-04-06T12:42:32.611Z,97465.03
2023-04-06T12:45:18.945Z,97590.53
2023-04-06T12:48:04.640Z,97602.91
2023-04-06T12:51:01.541Z,97620.94
2023-04-06T12:53:47.016Z,97630.84
2023-04-06T12:56:33.738Z,97618.78
2023-04-06T12:59:21.933Z,97611.50
2023-04-06T13:02:07.622Z,97594.31
2023-04-06T13:04:53.046Z,97613.94
2023-04-06T13:07:38.828Z,97613.41
2023-04-06T13:10:24.320Z,97612.75
2023-04-06T13:13:10.373Z,97610.88
2023-04-06T13:16:04.760Z,97577.72
2023-04-06T13:18:51.317Z,97409.69
2023-04-06T13:21:36.994Z,97608.88
2023-04-06T13:24:22.997Z,97409.59
2023-04-06T13:27:08.371Z,97608.16
2023-04-06T13:29:55.846Z,97603.13
2023-04-06T13:32:41.409Z,97594.50
2023-04-06T13:35:27.713Z,97602.91
2023-04-06T13:38:15.505Z,97610.03
2023-04-06T13:41:01.196Z,97604.56
2023-04-06T13:43:46.442Z,97592.72
2023-04-06T13:46:31.990Z,97590.75
2023-04-06T13:49:17.367Z,97401.28
2023-04-06T13:52:02.819Z,97527.66
2023-04-06T13:54:49.406Z,97595.13
2023-04-06T13:57:34.984Z,97601.88
2023-04-06T14:00:20.889Z,97600.06
2023-04-06T14:03:07.899Z,97569.97
2023-04-06T14:05:53.410Z,97622.63
2023-04-06T14:08:39.024Z,97591.16
2023-04-06T14:11:25.488Z,97623.38
2023-04-06T14:14:11.215Z,97598.94
2023-04-06T14:16:57.065Z,97598.72
2023-04-06T14:19:42.690Z,97567.44
2023-04-06T14:25:14.104Z,97580.47
2023-04-06T14:27:59.591Z,97620.13
2023-04-06T14:30:45.634Z,97398.16
2023-04-06T14:33:31.699Z,97613.09
2023-04-06T14:36:17.106Z,97604.56
2023-04-06T14:39:13.876Z,97610.66
2023-04-06T14:42:02.660Z,97640.91
2023-04-06T14:45:16.884Z,97596.72
2023-04-06T14:48:13.198Z,97604.91
2023-04-06T14:50:59.866Z,97598.69
2023-04-06T14:53:54.641Z,97597.00
2023-04-06T14:56:40.516Z,97600.81
2023-04-06T14:59:26.159Z,97599.63
2023-04-06T15:02:16.787Z,97597.84
2023-04-06T15:05:02.877Z,97541.97
2023-04-06T15:07:48.635Z,97604.78
2023-04-06T15:10:34.929Z,97598.81
2023-04-06T15:13:21.390Z,97603.22
2023-04-06T15:16:07.804Z,97592.50
2023-04-06T15:18:53.871Z,97550.84
2023-04-06T15:21:39.300Z,97591.78
2023-04-06T15:24:24.990Z,97535.03
2023-04-06T15:27:10.279Z,97621.38
2023-04-06T15:29:55.717Z,97471.06
2023-04-06T15:32:41.237Z,97417.88
2023-04-06T15:35:27.452Z,97587.16
2023-04-06T15:38:12.820Z,97553.06
2023-04-06T15:40:58.452Z,97398.28
2023-04-06T15:43:44.406Z,97612.34
2023-04-06T15:46:30.776Z,97418.72
2023-04-06T15:49:16.490Z,97588.63
2023-04-06T15:52:02.532Z,97562.59
2023-04-06T15:54:48.082Z,97560.09
2023-04-06T15:57:34.088Z,97591.38
2023-04-06T16:00:20.109Z,97559.47
2023-04-06T16:03:06.692Z,97604.78
2023-04-06T16:06:08.231Z,97600.28
2023-04-06T16:08:55.049Z,97585.38
2023-04-06T16:11:42.034Z,97587.91
2023-04-06T16:14:27.879Z,97565.56
2023-04-06T16:17:23.631Z,97564.59
2023-04-06T16:20:11.962Z,97558.22
2023-04-06T16:22:58.250Z,97579.81
2023-04-06T16:25:44.931Z,97575.19
2023-04-06T16:28:31.526Z,97566.59
2023-04-06T16:31:22.339Z,97588.72
2023-04-06T16:34:08.686Z,97595.66
2023-04-06T16:36:56.890Z,97586.09
2023-04-06T16:39:42.795Z,97595.75
2023-04-06T16:42:28.604Z,97587.69
2023-04-06T16:45:15.958Z,97411.19
2023-04-06T16:48:06.789Z,97574.16
2023-04-06T16:50:52.931Z,97590.06
2023-04-06T16:53:39.332Z,97572.03
2023-04-06T16:56:25.752Z,97594.28
2023-04-06T16:59:11.697Z,97562.38
2023-04-06T17:01:57.752Z,97544.13
2023-04-06T17:04:43.618Z,97579.78
2023-04-06T17:07:32.973Z,97581.88
2023-04-06T17:10:24.264Z,97568.47
2023-04-06T17:13:19.089Z,97586.31
2023-04-06T17:16:07.968Z,97586.31
2023-04-06T17:18:53.780Z,97428.59
2023-04-06T17:21:43.252Z,97576.25
2023-04-06T17:24:29.207Z,97599.53
2023-04-06T17:27:15.983Z,97407.41
2023-04-06T17:30:06.821Z,97583.25
2023-04-06T17:32:52.653Z,97624.09
2023-04-06T17:35:38.670Z,97604.78
2023-04-06T17:38:25.329Z,97611.91
2023-04-06T17:41:14.653Z,97616.72
2023-04-06T17:44:00.969Z,97556.31
2023-04-06T17:46:46.968Z,97630.16
2023-04-06T17:49:32.429Z,97632.56
2023-04-06T17:52:18.144Z,97431.31
2023-04-06T17:55:04.008Z,97438.66
2023-04-06T17:57:49.900Z,97555.47
2023-04-06T18:00:35.548Z,97610.13
2023-04-06T18:03:20.974Z,97644.22
2023-04-06T18:06:14.561Z,97652.63
2023-04-06T18:09:01.012Z,97637.81
2023-04-06T18:11:46.562Z,97462.56
2023-04-06T18:14:32.229Z,97656.94
2023-04-06T18:17:17.879Z,97639.59
2023-04-06T18:20:03.911Z,97659.16
2023-04-06T18:25:40.533Z,97611.28
2023-04-06T18:28:25.779Z,97642.31
2023-04-06T18:31:11.523Z,97465.91
2023-04-06T18:33:57.594Z,97635.84
2023-04-06T18:36:44.150Z,97648.31
2023-04-06T18:39:29.435Z,97644.66
2023-04-06T18:42:15.049Z,97650.34
2023-04-06T18:45:00.796Z,97677.44
2023-04-06T18:47:47.639Z,97628.91
2023-04-06T18:50:33.259Z,97628.28
2023-04-06T18:53:19.177Z,97611.28
2023-04-06T18:56:15.714Z,97636.97
2023-04-06T18:59:05.403Z,97548.13
2023-04-06T19:01:54.098Z,97618.50
2023-04-06T19:04:40.391Z,97567.84
2023-04-06T19:07:27.101Z,97640.13
2023-04-06T19:10:12.715Z,97444.94
2023-04-06T19:13:22.822Z,97637.63
2023-04-06T19:16:19.697Z,97659.47
2023-04-06T19:19:06.280Z,97629.81
2023-04-06T19:22:29.397Z,97641.69
2023-04-06T19:25:49.796Z,97650.75
2023-04-06T19:28:36.941Z,97662.50
2023-04-06T19:31:23.037Z,97660.31
2023-04-06T19:34:08.724Z,97650.75
2023-04-06T19:37:05.446Z,97680.13
2023-04-06T19:40:08.107Z,97666.28
2023-04-06T19:43:38.421Z,97661.59
2023-04-06T19:46:34.066Z,97665.69
2023-04-06T19:49:19.551Z,97675.06
2023-04-06T19:52:07.687Z,97694.50
2023-04-06T19:54:53.171Z,97665.69
2023-04-06T19:57:39.306Z,97464.00
2023-04-06T20:00:24.946Z,97672.97
2023-04-06T20:03:10.845Z,97655.34
2023-04-06T20:09:28.980Z,97681.34
2023-04-06T20:12:14.607Z,97671.72
2023-04-06T20:15:01.702Z,97654.59
2023-04-06T20:17:47.349Z,97535.44
2023-04-06T20:20:33.106Z,97646.94
2023-04-06T20:23:21.450Z,97667.75
2023-04-06T20:26:11.648Z,97662.03
2023-04-06T20:28:57.353Z,97479.56
2023-04-06T20:31:43.319Z,97661.81
2023-04-06T20:34:30.373Z,97656.06
2023-04-06T20:37:16.629Z,97656.25
2023-04-06T20:40:01.976Z,97621.34
2023-04-06T20:42:48.804Z,97572.66
2023-04-06T20:45:38.607Z,97647.41
2023-04-06T20:48:25.665Z,97651.72
2023-04-06T20:51:19.751Z,97450.50
2023-04-06T20:54:05.330Z,97464.41
2023-04-06T20:56:50.907Z,97655.25
2023-04-06T20:59:37.816Z,97574.91
2023-04-06T21:02:23.269Z,97056.25
2023-04-06T21:05:09.279Z,97479.75
2023-04-06T21:07:55.515Z,97472.59
2023-04-06T21:10:41.065Z,97631.75
2023-04-06T21:13:27.192Z,97587.72
2023-04-06T21:16:13.026Z,97501.97
2023-04-06T21:19:01.608Z,97637.41
2023-04-06T21:21:48.059Z,97499.22
2023-04-06T21:24:33.679Z,97462.97
2023-04-06T21:27:19.108Z,97693.53
2023-04-06T21:30:04.689Z,97686.19
2023-04-06T21:32:50.459Z,97647.53
2023-04-06T21:35:40.740Z,97608.59
2023-04-06T21:38:26.229Z,97640.56
2023-04-06T21:41:11.703Z,97529.22
2023-04-06T21:43:57.009Z,97551.34
2023-04-06T21:46:42.615Z,97490.66
2023-04-06T21:49:27.991Z,97690.50
2023-04-06T21:52:13.490Z,97678.69
2023-04-06T21:54:58.792Z,97678.25
2023-04-06T21:57:44.645Z,97636.91
2023-04-06T22:00:30.046Z,97686.16
2023-04-06T22:03:15.792Z,97500.38
2023-04-06T22:06:04.360Z,97591.94
2023-04-06T22:08:50.086Z,97681.47
2023-04-06T22:11:35.866Z,97687.72
2023-04-06T22:14:21.747Z,97502.03
2023-04-06T22:17:07.439Z,97636.16
2023-04-06T22:19:52.867Z,97684.72
2023-04-06T22:22:39.187Z,97578.53
2023-04-06T22:25:24.871Z,97708.63
2023-04-06T22:28:10.179Z,97508.00
2023-04-06T22:30:55.693Z,97699.56
2023-04-06T22:33:41.095Z,97529.19
2023-04-06T22:36:27.122Z,97510.16
2023-04-06T22:39:12.525Z,97690.25
2023-04-06T22:41:58.023Z,97627.50
2023-04-06T22:44:43.370Z,97487.53
2023-04-06T22:47:29.593Z,97493.03
2023-04-06T22:50:16.336Z,97678.47
2023-04-06T22:53:02.397Z,97632.91
2023-04-06T22:55:47.649Z,97687.88
2023-04-06T22:58:33.092Z,97652.84
2023-04-06T23:01:18.607Z,97658.38
2023-04-06T23:04:04.411Z,97682.81
2023-04-06T23:06:49.630Z,97478.28
2023-04-06T23:09:35.053Z,97597.47
2023-04-06T23:12:23.699Z,97665.44
2023-04-06T23:15:09.988Z,97648.09
2023-04-06T23:17:55.730Z,97669.91
2023-04-06T23:20:41.343Z,97621.72
2023-04-06T23:23:26.608Z,97633.78
2023-04-06T23:26:12.009Z,97673.84
2023-04-06T23:28:57.453Z,97571.97
2023-04-06T23:31:42.718Z,97494.25
2023-04-06T23:34:28.247Z,97656.00
2023-04-06T23:37:13.814Z,97624.34
2023-04-06T23:40:00.225Z,97475.78
2023-04-06T23:42:46.250Z,97696.59
2023-04-06T23:45:33.025Z,97673.44
2023-04-06T23:48:18.402Z,97655.44
2023-04-06T23:51:03.982Z,97476.03
2023-04-06T23:53:49.367Z,97668.50
2023-04-06T23:56:34.934Z,97467.13
2023-04-06T23:59:20.343Z,97491.25
